createdAt,value
2022-12-08T00:01:22.452Z,11.85
2022-12-08T00:04:13.399Z,11.65
2022-12-08T00:07:28.858Z,13.25
2022-12-08T00:13:24.789Z,12.25
2022-12-08T00:16:40.223Z,13.20
2022-12-08T00:19:26.326Z,12.90
2022-12-08T00:22:25.508Z,12.57
2022-12-08T00:28:13.440Z,11.88
2022-12-08T00:39:36.625Z,13.02
2022-12-08T00:48:53.790Z,13.30
2022-12-08T00:52:15.031Z,14.93
2022-12-08T00:55:51.182Z,14.27
2022-12-08T00:59:40.788Z,13.02
2022-12-08T01:06:51.972Z,12.88
2022-12-08T01:19:08.084Z,12.65
2022-12-08T01:28:13.660Z,13.20
2022-12-08T01:31:07.577Z,13.70
2022-12-08T01:34:15.162Z,13.88
2022-12-08T01:37:16.971Z,13.02
2022-12-08T01:40:16.062Z,12.80
2022-12-08T01:43:12.929Z,12.23
2022-12-08T01:46:09.030Z,13.27
2022-12-08T01:49:30.950Z,12.75
2022-12-08T01:52:40.856Z,11.90
2022-12-08T01:55:42.659Z,12.30
2022-12-08T01:58:41.858Z,13.27
2022-12-08T02:04:40.894Z,12.27
2022-12-08T02:10:56.018Z,12.90
2022-12-08T02:13:57.795Z,13.20
2022-12-08T02:17:18.892Z,13.43
2022-12-08T02:20:36.520Z,11.77
2022-12-08T02:23:38.565Z,13.57
2022-12-08T02:27:05.144Z,12.02
2022-12-08T02:30:47.286Z,13.15
2022-12-08T02:33:55.251Z,13.25
2022-12-08T02:36:55.721Z,13.35
2022-12-08T02:40:01.982Z,12.63
2022-12-08T02:43:13.663Z,12.88
2022-12-08T02:46:18.074Z,12.85
2022-12-08T02:49:13.966Z,12.38
2022-12-08T02:52:30.551Z,12.77
2022-12-08T02:55:23.597Z,14.18
2022-12-08T02:58:23.817Z,11.82
2022-12-08T03:01:26.011Z,13.02
2022-12-08T03:04:34.004Z,14.10
2022-12-08T03:08:12.886Z,13.27
2022-12-08T03:11:11.344Z,12.27
2022-12-08T03:14:01.537Z,12.90
2022-12-08T03:16:55.122Z,13.52
2022-12-08T03:19:50.665Z,12.07
2022-12-08T03:22:45.612Z,13.57
2022-12-08T03:25:42.029Z,12.70
2022-12-08T03:28:28.967Z,13.93
2022-12-08T03:31:21.943Z,12.88
2022-12-08T03:34:17.847Z,13.65
2022-12-08T03:37:06.775Z,13.63
2022-12-08T03:40:07.215Z,12.57
2022-12-08T03:42:58.497Z,12.45
2022-12-08T03:45:47.828Z,13.30
2022-12-08T03:51:37.450Z,14.27
2022-12-08T03:54:27.678Z,14.13
2022-12-08T03:57:14.825Z,12.95
2022-12-08T04:00:10.984Z,14.02
2022-12-08T04:03:01.166Z,12.48
2022-12-08T04:05:48.181Z,12.40
2022-12-08T04:08:48.719Z,12.50
2022-12-08T04:11:40.575Z,13.45
2022-12-08T04:14:28.958Z,12.50
2022-12-08T04:17:18.615Z,12.23
2022-12-08T04:20:08.495Z,12.25
2022-12-08T04:22:55.442Z,13.13
2022-12-08T04:25:45.211Z,12.60
2022-12-08T04:28:35.465Z,12.88
2022-12-08T04:31:22.406Z,13.50
2022-12-08T04:34:15.248Z,12.88
2022-12-08T04:37:02.033Z,12.25
2022-12-08T04:39:48.865Z,13.20
2022-12-08T04:42:39.317Z,13.20
2022-12-08T04:45:32.583Z,12.90
2022-12-08T04:48:28.405Z,11.88
2022-12-08T04:51:20.936Z,12.68
2022-12-08T04:54:16.976Z,12.50
2022-12-08T04:57:09.499Z,12.55
2022-12-08T04:59:56.516Z,13.20
2022-12-08T05:02:44.338Z,11.90
2022-12-08T05:05:34.419Z,15.20
2022-12-08T05:08:36.992Z,12.95
2022-12-08T05:11:26.544Z,12.63
2022-12-08T05:14:21.210Z,12.98
2022-12-08T05:17:10.464Z,12.18
2022-12-08T05:22:50.822Z,11.48
2022-12-08T05:25:42.954Z,13.57
2022-12-08T05:28:43.907Z,14.23
2022-12-08T05:31:37.406Z,15.10
2022-12-08T05:34:28.610Z,12.77
2022-12-08T05:37:18.102Z,12.55
2022-12-08T05:40:06.200Z,13.23
2022-12-08T05:42:58.460Z,14.00
2022-12-08T05:45:45.434Z,13.75
2022-12-08T05:48:41.102Z,13.52
2022-12-08T05:51:30.449Z,14.23
2022-12-08T05:57:08.649Z,14.30
2022-12-08T05:59:59.640Z,13.43
2022-12-08T06:02:46.829Z,14.70
2022-12-08T06:05:35.315Z,13.75
2022-12-08T06:08:30.807Z,14.47
2022-12-08T06:11:30.020Z,15.32
2022-12-08T06:14:17.130Z,15.23
2022-12-08T06:17:04.016Z,13.77
2022-12-08T06:19:50.947Z,15.82
2022-12-08T06:22:39.586Z,14.18
2022-12-08T06:25:26.549Z,17.73
2022-12-08T06:28:14.710Z,16.38
2022-12-08T06:31:13.462Z,18.02
2022-12-08T06:34:00.337Z,17.17
2022-12-08T06:37:00.477Z,18.90
2022-12-08T06:39:50.207Z,17.08
2022-12-08T06:42:47.043Z,18.48
2022-12-08T06:45:37.000Z,18.48
2022-12-08T06:48:23.870Z,16.27
2022-12-08T06:51:18.536Z,17.30
2022-12-08T06:54:05.324Z,15.63
2022-12-08T06:56:52.186Z,18.13
2022-12-08T06:59:39.633Z,16.20
2022-12-08T07:02:26.444Z,17.00
2022-12-08T07:05:13.289Z,16.67
2022-12-08T07:08:08.099Z,15.98
2022-12-08T07:10:55.066Z,15.60
2022-12-08T07:13:41.815Z,18.38
2022-12-08T07:16:28.643Z,16.13
2022-12-08T07:19:15.463Z,17.42
2022-12-08T07:22:02.228Z,15.68
2022-12-08T07:24:49.037Z,16.42
2022-12-08T07:27:37.550Z,14.98
2022-12-08T07:30:24.326Z,15.25
2022-12-08T07:33:11.077Z,15.80
2022-12-08T07:36:02.773Z,15.88
2022-12-08T07:38:50.915Z,16.30
2022-12-08T07:41:37.724Z,17.13
2022-12-08T07:44:24.455Z,17.50
2022-12-08T07:47:11.236Z,16.08
2022-12-08T07:49:58.130Z,15.93
2022-12-08T07:52:45.009Z,15.50
2022-12-08T07:55:31.901Z,17.60
2022-12-08T07:58:18.689Z,15.80
2022-12-08T08:01:06.153Z,15.25
2022-12-08T08:03:54.298Z,16.20
2022-12-08T08:06:41.149Z,15.95
2022-12-08T08:09:27.921Z,15.45
2022-12-08T08:12:30.740Z,17.05
2022-12-08T08:15:19.225Z,14.52
2022-12-08T08:18:06.160Z,15.88
2022-12-08T08:20:52.919Z,14.63
2022-12-08T08:23:39.674Z,16.67
2022-12-08T08:26:27.313Z,15.00
2022-12-08T08:29:14.058Z,14.93
2022-12-08T08:32:00.826Z,15.90
2022-12-08T08:34:47.611Z,15.20
2022-12-08T08:37:34.534Z,15.13
2022-12-08T08:40:23.886Z,16.48
2022-12-08T08:46:23.041Z,15.65
2022-12-08T08:49:09.964Z,16.40
2022-12-08T08:51:56.745Z,15.32
2022-12-08T08:54:43.533Z,16.85
2022-12-08T08:57:32.681Z,15.68
2022-12-08T09:00:19.803Z,15.20
2022-12-08T09:03:06.714Z,14.65
2022-12-08T09:05:55.475Z,15.35
2022-12-08T09:08:43.018Z,14.77
2022-12-08T09:11:29.872Z,15.70
2022-12-08T09:14:16.676Z,14.73
2022-12-08T09:17:03.548Z,15.68
2022-12-08T09:19:50.376Z,16.65
2022-12-08T09:22:40.039Z,14.23
2022-12-08T09:25:26.826Z,14.43
2022-12-08T09:28:14.757Z,14.52
2022-12-08T09:31:01.889Z,15.80
2022-12-08T09:33:51.502Z,14.60
2022-12-08T09:36:38.518Z,16.70
2022-12-08T09:39:25.358Z,16.58
2022-12-08T09:42:12.205Z,16.50
2022-12-08T09:45:12.704Z,17.40
2022-12-08T09:48:02.402Z,15.27
2022-12-08T09:50:55.394Z,16.08
2022-12-08T09:53:45.910Z,16.23
2022-12-08T09:56:35.714Z,16.45
2022-12-08T09:59:29.300Z,17.83
2022-12-08T10:02:27.280Z,17.00
2022-12-08T10:05:15.213Z,17.20
2022-12-08T10:08:08.837Z,18.92
2022-12-08T10:11:00.064Z,19.15
2022-12-08T10:14:11.609Z,17.70
2022-12-08T10:26:31.617Z,19.90
2022-12-08T10:35:05.584Z,20.30
2022-12-08T10:43:13.174Z,18.77
2022-12-08T10:46:58.511Z,20.65
2022-12-08T10:50:10.983Z,18.95
2022-12-08T10:53:31.555Z,20.17
2022-12-08T10:56:41.292Z,22.42
2022-12-08T11:05:51.625Z,22.38
2022-12-08T12:03:49.348Z,20.65
2022-12-08T12:11:56.823Z,23.23
2022-12-08T12:23:17.743Z,21.45
2022-12-08T12:30:04.628Z,20.48
2022-12-08T13:02:44.514Z,20.58
2022-12-08T13:17:54.693Z,23.80
2022-12-08T13:21:13.933Z,21.30
2022-12-08T13:24:20.767Z,22.90
2022-12-08T13:27:13.537Z,23.77
2022-12-08T13:30:44.132Z,21.98
2022-12-08T13:37:30.314Z,22.67
2022-12-08T13:44:10.640Z,25.63
2022-12-08T13:55:25.905Z,21.25
2022-12-08T13:58:30.322Z,22.23
2022-12-08T14:02:01.256Z,21.83
2022-12-08T14:05:48.064Z,22.55
2022-12-08T14:09:02.596Z,21.02
2022-12-08T14:12:14.799Z,21.65
2022-12-08T14:15:09.374Z,20.80
2022-12-08T14:18:00.792Z,21.52
2022-12-08T14:21:21.357Z,22.95
2022-12-08T14:24:20.591Z,19.75
2022-12-08T14:27:16.431Z,22.20
2022-12-08T14:30:46.694Z,19.15
2022-12-08T14:33:56.496Z,19.50
2022-12-08T14:36:52.619Z,18.02
2022-12-08T14:39:43.698Z,19.77
2022-12-08T14:42:31.005Z,20.73
2022-12-08T14:45:20.205Z,20.17
2022-12-08T14:48:22.233Z,18.52
2022-12-08T14:51:28.504Z,20.13
2022-12-08T14:54:19.005Z,18.42
2022-12-08T14:57:11.499Z,19.88
2022-12-08T15:00:01.224Z,18.83
2022-12-08T15:02:48.408Z,20.00
2022-12-08T15:05:36.423Z,19.20
2022-12-08T15:08:53.229Z,18.05
2022-12-08T15:11:40.059Z,16.42
2022-12-08T15:14:37.369Z,18.77
2022-12-08T15:17:51.110Z,17.23
2022-12-08T15:20:45.079Z,18.13
2022-12-08T15:23:47.835Z,18.23
2022-12-08T15:26:41.052Z,18.60
2022-12-08T15:29:30.728Z,18.13
2022-12-08T15:32:22.665Z,18.10
2022-12-08T15:35:25.571Z,17.08
2022-12-08T15:38:29.199Z,18.98
2022-12-08T15:41:21.093Z,19.45
2022-12-08T15:44:08.003Z,18.65
2022-12-08T15:46:55.535Z,16.70
2022-12-08T15:49:46.149Z,20.13
2022-12-08T15:52:36.823Z,17.95
2022-12-08T15:55:23.675Z,18.15
2022-12-08T16:01:33.000Z,21.10
2022-12-08T16:07:31.728Z,20.85
2022-12-08T16:10:45.543Z,21.17
2022-12-08T16:14:15.569Z,19.77
2022-12-08T16:17:03.544Z,21.25
2022-12-08T16:20:00.218Z,20.25
2022-12-08T16:23:08.023Z,20.80
2022-12-08T16:29:18.003Z,20.60
2022-12-08T16:32:19.859Z,20.52
2022-12-08T16:35:07.289Z,19.13
2022-12-08T16:37:54.450Z,19.50
2022-12-08T16:41:03.281Z,21.13
2022-12-08T16:43:51.246Z,23.30
2022-12-08T16:46:44.064Z,20.15
2022-12-08T16:49:39.338Z,21.92
2022-12-08T16:52:31.010Z,21.65
2022-12-08T16:55:19.370Z,22.63
2022-12-08T16:58:14.747Z,20.33
2022-12-08T17:01:04.732Z,20.20
2022-12-08T17:04:22.978Z,20.13
2022-12-08T17:09:55.534Z,21.45
2022-12-08T17:12:48.076Z,20.42
2022-12-08T17:15:35.178Z,20.92
2022-12-08T17:18:29.143Z,21.48
2022-12-08T17:21:17.511Z,20.25
2022-12-08T17:24:05.051Z,21.80
2022-12-08T17:26:54.280Z,22.33
2022-12-08T17:32:35.532Z,22.52
2022-12-08T17:35:22.470Z,21.08
2022-12-08T17:38:15.733Z,21.08
2022-12-08T17:41:06.666Z,21.83
2022-12-08T17:43:55.331Z,22.17
2022-12-08T17:46:46.368Z,21.13
2022-12-08T17:49:39.512Z,21.45
2022-12-08T17:52:27.362Z,21.15
2022-12-08T17:55:16.954Z,20.65
2022-12-08T17:58:10.916Z,20.30
2022-12-08T18:01:07.603Z,21.30
2022-12-08T18:04:03.042Z,20.73
2022-12-08T18:07:02.895Z,19.95
2022-12-08T18:10:28.270Z,20.88
2022-12-08T18:13:34.472Z,19.63
2022-12-08T18:16:29.335Z,18.83
2022-12-08T18:19:26.521Z,21.23
2022-12-08T18:22:45.112Z,21.67
2022-12-08T18:26:38.503Z,22.98
2022-12-08T18:29:15.842Z,21.60
2022-12-08T18:32:09.029Z,22.42
2022-12-08T18:35:06.157Z,20.65
2022-12-08T18:38:06.257Z,20.70
2022-12-08T18:41:04.726Z,20.40
2022-12-08T18:44:12.714Z,20.90
2022-12-08T18:51:43.019Z,19.75
2022-12-08T18:54:22.102Z,20.85
2022-12-08T18:57:45.728Z,20.48
2022-12-08T19:01:18.503Z,20.13
2022-12-08T19:04:54.197Z,19.73
2022-12-08T19:08:07.265Z,19.55
2022-12-08T19:11:46.076Z,20.77
2022-12-08T19:19:27.044Z,18.05
2022-12-08T19:22:02.275Z,22.55
2022-12-08T19:25:30.978Z,18.38
2022-12-08T19:28:42.457Z,21.17
2022-12-08T19:31:51.386Z,19.77
2022-12-08T19:35:41.153Z,20.48
2022-12-08T19:42:44.384Z,20.98
2022-12-08T19:45:57.448Z,18.95
2022-12-08T19:48:48.061Z,18.92
2022-12-08T19:55:01.801Z,21.35
2022-12-08T19:58:03.967Z,21.10
2022-12-08T20:01:26.435Z,20.17
2022-12-08T20:04:28.158Z,19.05
2022-12-08T20:10:59.261Z,19.77
2022-12-08T20:14:02.386Z,20.10
2022-12-08T20:17:31.999Z,23.08
2022-12-08T20:20:42.038Z,23.52
2022-12-08T20:23:39.973Z,20.70
2022-12-08T20:26:45.800Z,19.77
2022-12-08T20:30:17.552Z,19.55
2022-12-08T20:33:38.203Z,19.85
2022-12-08T20:40:06.871Z,19.80
2022-12-08T20:42:57.847Z,21.10
2022-12-08T20:57:35.871Z,18.15
2022-12-08T21:00:48.093Z,18.35
2022-12-08T21:07:55.510Z,18.20
2022-12-08T21:10:56.412Z,22.15
2022-12-08T21:14:39.545Z,20.08
2022-12-08T21:17:31.130Z,19.15
2022-12-08T21:20:32.996Z,19.80
2022-12-08T21:23:45.030Z,20.45
2022-12-08T21:26:46.285Z,19.63
2022-12-08T21:29:50.942Z,18.63
2022-12-08T21:32:56.006Z,17.48
2022-12-08T21:35:56.563Z,19.00
2022-12-08T21:38:48.076Z,19.13
2022-12-08T21:42:01.324Z,20.05
2022-12-08T21:44:56.028Z,19.08
2022-12-08T21:47:50.656Z,19.10
2022-12-08T21:51:19.423Z,19.48
2022-12-08T21:54:30.247Z,20.63
2022-12-08T21:57:26.012Z,19.67
2022-12-08T22:00:22.057Z,22.30
2022-12-08T22:03:18.362Z,19.98
2022-12-08T22:06:38.618Z,19.17
2022-12-08T22:09:40.856Z,19.65
2022-12-08T22:12:43.556Z,18.40
2022-12-08T22:15:35.449Z,20.05
2022-12-08T22:18:34.948Z,21.10
2022-12-08T22:21:30.570Z,20.15
2022-12-08T22:24:37.852Z,19.60
2022-12-08T22:27:33.171Z,20.88
2022-12-08T22:30:37.197Z,20.40
2022-12-08T22:34:00.247Z,21.23
2022-12-08T22:36:51.481Z,20.27
2022-12-08T22:39:45.443Z,20.00
2022-12-08T22:42:34.984Z,20.38
2022-12-08T22:45:39.062Z,19.58
2022-12-08T22:48:36.762Z,20.42
2022-12-08T22:51:31.508Z,19.73
2022-12-08T22:54:27.205Z,19.23
2022-12-08T22:57:19.664Z,20.52
2022-12-08T23:00:13.845Z,20.17
2022-12-08T23:03:10.001Z,19.08
2022-12-08T23:06:14.866Z,19.88
2022-12-08T23:09:19.656Z,22.55
2022-12-08T23:12:12.681Z,20.05
2022-12-08T23:15:27.249Z,20.98
2022-12-08T23:18:29.059Z,22.48
2022-12-08T23:21:33.950Z,21.05
2022-12-08T23:24:24.247Z,20.80
2022-12-08T23:27:19.575Z,21.80
2022-12-08T23:30:11.208Z,19.33
2022-12-08T23:33:10.258Z,18.85
2022-12-08T23:36:03.931Z,22.85
2022-12-08T23:38:52.333Z,19.65
2022-12-08T23:41:41.858Z,20.80
2022-12-08T23:44:28.801Z,20.75
2022-12-08T23:47:20.161Z,21.10
2022-12-08T23:50:14.019Z,19.23
2022-12-08T23:53:05.355Z,20.52
2022-12-08T23:56:14.393Z,20.40
2022-12-08T23:59:02.794Z,20.42
